Time;durP1;ratioP1;P1;durP2;ratioP2;P2;SDS_P1;SDS_P2;PMS_P1;PMS_P2;Temp;Humidity;BMP_temperature;BMP_pressure;BME280_temperature;BME280_humidity;BME280_pressure;Samples;Min_cycle;Max_cycle;Signal;HPM_P1;HPM_P2
2020/12/13 00:00:34;;;;;;;;;22.50;22.50;;;;;5.54;74.66;101463.84;4436776;32;12360;-72
2020/12/13 00:03:15;;;;;;;;;22.50;20.50;;;;;5.63;74.54;101458.62;4435947;32;13049;-71
2020/12/13 00:06:21;;;;;;;;;22.50;21.25;;;;;5.62;74.42;101447.94;4436182;32;12349;-71
2020/12/13 00:09:06;;;;;;;;;20.50;20.50;;;;;5.51;74.93;101444.38;4435947;32;12353;-72
2020/12/13 00:12:03;;;;;;;;;18.25;18.25;;;;;5.51;74.78;101436.94;4435924;32;12318;-72
2020/12/13 00:14:59;;;;;;;;;17.00;17.00;;;;;5.37;75.54;101435.91;4435779;32;12375;-71
2020/12/13 00:17:27;;;;;;;;;19.00;19.00;;;;;5.03;75.99;101419.22;4437365;32;12351;-72
2020/12/13 00:19:55;;;;;;;;;21.75;21.75;;;;;5.09;76.42;101425.53;4436476;32;12364;-71
2020/12/13 00:22:23;;;;;;;;;25.00;25.00;;;;;4.90;77.45;101417.03;4435599;32;12995;-71
2020/12/13 00:24:50;;;;;;;;;19.00;19.00;;;;;4.90;77.29;101419.78;4435866;32;12325;-71
2020/12/13 00:27:46;;;;;;;;;15.00;15.00;;;;;5.22;76.21;101422.25;4439741;32;12288;-71
2020/12/13 00:30:21;;;;;;;;;24.00;20.25;;;;;5.10;76.41;101425.25;4448935;32;12276;-71
2020/12/13 00:33:17;;;;;;;;;22.75;21.00;;;;;5.25;75.78;101417.00;4433131;32;12985;-72
2020/12/13 00:36:17;;;;;;;;;23.75;23.00;;;;;5.16;76.02;101415.94;4435424;32;12358;-71
2020/12/13 00:39:12;;;;;;;;;19.00;19.00;;;;;5.27;75.67;101419.47;4435070;32;12389;-71
2020/12/13 00:41:40;;;;;;;;;23.50;23.50;;;;;5.22;75.44;101423.06;4434759;32;12291;-71
2020/12/13 00:44:35;;;;;;;;;16.75;16.75;;;;;5.16;75.89;101418.69;4434154;32;12306;-71
2020/12/13 00:47:03;;;;;;;;;19.25;17.50;;;;;5.31;75.36;101417.81;4436840;32;12303;-71
2020/12/13 00:49:58;;;;;;;;;24.00;23.00;;;;;5.18;75.55;101416.47;4436036;32;12319;-71
2020/12/13 00:52:54;;;;;;;;;18.50;18.50;;;;;5.34;75.45;101399.97;4434659;32;12310;-71
2020/12/13 00:55:50;;;;;;;;;23.50;21.50;;;;;4.94;76.43;101394.31;4431199;32;12297;-71
2020/12/13 00:58:48;;;;;;;;;17.25;17.25;;;;;5.19;75.84;101407.13;4419108;32;12493;-71
2020/12/13 01:01:29;;;;;;;;;24.00;22.75;;;;;5.15;75.89;101402.50;4421070;32;12283;-71
2020/12/13 01:04:25;;;;;;;;;20.50;20.50;;;;;5.39;75.33;101411.75;4419047;32;12412;-72
2020/12/13 01:07:20;;;;;;;;;18.75;18.75;;;;;5.23;75.52;101405.50;4420472;32;12304;-70
2020/12/13 01:09:56;;;;;;;;;20.50;20.50;;;;;5.07;76.22;101411.28;4420002;32;12336;-71
2020/12/13 01:12:23;;;;;;;;;16.75;16.75;;;;;5.22;75.84;101401.12;4407142;32;12289;-72
2020/12/13 01:14:51;;;;;;;;;18.50;16.50;;;;;5.22;75.51;101401.12;4420362;32;12288;-72
2020/12/13 01:17:49;;;;;;;;;20.75;20.00;;;;;5.29;75.45;101393.44;4419883;32;12502;-71
2020/12/13 01:20:44;;;;;;;;;21.00;21.00;;;;;5.27;75.41;101398.34;4420250;32;13060;-72
2020/12/13 01:23:40;;;;;;;;;19.75;18.00;;;;;5.06;76.15;101402.25;4418587;32;12394;-72
2020/12/13 01:26:27;;;;;;;;;18.00;15.75;;;;;5.17;75.48;101398.38;4418715;32;12352;-71
2020/12/13 01:29:22;;;;;;;;;15.75;15.75;;;;;5.20;75.42;101392.31;4419359;32;12316;-72
2020/12/13 01:32:18;;;;;;;;;19.25;19.25;;;;;5.33;74.81;101387.38;4408790;32;13028;-71
2020/12/13 01:34:49;;;;;;;;;17.50;17.50;;;;;5.05;75.78;101389.63;4419650;32;12378;-71
2020/12/13 01:37:30;;;;;;;;;18.00;15.75;;;;;4.66;77.41;101386.63;4419550;32;12956;-70
2020/12/13 01:40:25;;;;;;;;;24.00;20.75;;;;;4.89;76.70;101390.72;4418871;32;12286;-70
2020/12/13 01:42:53;;;;;;;;;17.25;17.25;;;;;4.93;76.57;101383.63;4419713;32;13030;-71
2020/12/13 01:45:49;;;;;;;;;18.25;18.00;;;;;4.93;76.26;101386.34;4419063;32;12381;-71
2020/12/13 01:48:44;;;;;;;;;16.50;16.50;;;;;4.86;76.17;101381.16;4418656;32;12402;-71
2020/12/13 01:54:44;;;;;;;;;14.50;12.25;;;;;4.98;75.97;101398.16;4418867;32;12396;-71
2020/12/13 01:57:40;;;;;;;;;19.50;18.00;;;;;5.10;75.62;101403.31;4449541;32;12406;-71
2020/12/13 02:00:24;;;;;;;;;17.00;17.00;;;;;5.14;75.05;101396.19;4437772;32;12376;-71
2020/12/13 02:02:53;;;;;;;;;22.50;21.25;;;;;5.12;75.46;101401.12;4451420;32;12284;-71
2020/12/13 02:05:59;;;;;;;;;21.25;21.25;;;;;5.10;75.03;101402.50;4438663;32;13034;-72
2020/12/13 02:08:55;;;;;;;;;21.00;18.50;;;;;5.10;75.33;101389.63;4448898;32;12463;-71
2020/12/13 02:11:50;;;;;;;;;12.25;12.25;;;;;4.92;76.23;101380.06;4447394;32;12343;-70
2020/12/13 02:14:46;;;;;;;;;10.75;10.50;;;;;4.78;76.19;101380.91;4434082;32;12277;-71
2020/12/13 02:17:41;;;;;;;;;15.25;15.25;;;;;4.86;76.28;101385.81;4434032;32;12293;-71
2020/12/13 02:20:23;;;;;;;;;13.75;13.75;;;;;4.86;76.00;101391.31;4434857;32;12481;-71
2020/12/13 02:23:20;;;;;;;;;14.75;13.50;;;;;4.87;75.98;101392.94;4433889;32;12286;-71
2020/12/13 02:26:16;;;;;;;;;16.50;15.50;;;;;4.84;75.94;101398.97;4433625;32;12448;-71
2020/12/13 02:29:13;;;;;;;;;19.00;19.00;;;;;4.97;75.74;101399.22;4433619;32;12309;-71
2020/12/13 02:31:45;;;;;;;;;20.25;20.25;;;;;5.02;75.57;101393.75;4434521;32;13035;-71
2020/12/13 02:34:40;;;;;;;;;14.75;13.00;;;;;5.09;75.27;101395.38;4433752;32;12490;-71
2020/12/13 02:37:07;;;;;;;;;16.25;16.25;;;;;4.85;75.56;101397.88;4434538;32;12351;-72
2020/12/13 02:40:04;;;;;;;;;16.00;16.00;;;;;4.97;75.31;101406.63;4422909;32;12292;-72
2020/12/13 02:42:34;;;;;;;;;15.00;15.00;;;;;5.02;75.34;101399.22;4445888;32;12426;-71
2020/12/13 02:45:16;;;;;;;;;15.25;15.25;;;;;5.18;74.65;101408.25;4449354;32;12322;-71
2020/12/13 02:47:44;;;;;;;;;17.00;16.75;;;;;5.37;73.95;101403.00;4450949;32;12277;-71
2020/12/13 02:50:39;;;;;;;;;12.75;12.25;;;;;5.16;74.05;101401.41;4448276;32;12284;-71
2020/12/13 02:53:35;;;;;;;;;14.75;14.75;;;;;4.97;74.94;101403.88;4449504;32;12362;-72
2020/12/13 02:56:35;;;;;;;;;14.00;14.00;;;;;5.21;74.37;101409.59;4447579;32;12276;-71
2020/12/13 02:59:02;;;;;;;;;16.00;16.00;;;;;5.15;74.13;101405.25;4449227;32;12347;-71
2020/12/13 03:01:59;;;;;;;;;14.00;14.00;;;;;5.14;74.45;101407.16;4447828;32;12275;-71
2020/12/13 03:04:56;;;;;;;;;13.50;13.50;;;;;5.21;73.87;101409.59;4438060;32;12289;-72
2020/12/13 03:07:51;;;;;;;;;16.00;16.00;;;;;5.02;74.63;101406.63;4424865;32;12466;-71
2020/12/13 03:10:48;;;;;;;;;15.50;15.00;;;;;5.22;73.65;101400.28;4433357;32;12355;-72
2020/12/13 03:13:44;;;;;;;;;18.25;18.00;;;;;5.12;73.97;101414.00;4432792;32;12332;-72
2020/12/13 03:16:25;;;;;;;;;19.25;16.75;;;;;5.19;73.42;101403.56;4432967;32;13006;-71
2020/12/13 03:18:53;;;;;;;;;15.25;15.25;;;;;5.10;73.70;101406.06;4433789;32;12353;-70
2020/12/13 03:21:42;;;;;;;;;18.00;16.00;;;;;5.29;73.10;101403.53;4433896;32;12296;-73
2020/12/13 03:24:37;;;;;;;;;17.00;17.00;;;;;5.20;73.28;101408.78;4434076;32;12295;-73
2020/12/13 03:27:05;;;;;;;;;16.25;16.25;;;;;5.00;74.36;101417.06;4420830;32;12386;-71
2020/12/13 03:29:33;;;;;;;;;20.25;18.75;;;;;5.00;73.92;101419.78;4420789;32;12322;-72
2020/12/13 03:32:28;;;;;;;;;13.00;13.00;;;;;5.06;73.86;101407.72;4432595;32;12525;-71
2020/12/13 03:34:58;;;;;;;;;17.00;17.00;;;;;4.85;74.84;101412.41;4434035;32;12372;-71
2020/12/13 03:37:54;;;;;;;;;14.75;14.50;;;;;5.09;73.88;101412.66;4448389;32;12290;-71
2020/12/13 03:40:46;;;;;;;;;12.00;12.00;;;;;4.63;75.27;101409.13;4449676;32;13002;-71
2020/12/13 03:43:36;;;;;;;;;15.25;15.25;;;;;4.64;75.39;101416.25;4448957;32;12254;-72
2020/12/13 03:46:03;;;;;;;;;12.75;12.75;;;;;4.98;73.96;101416.50;4449317;32;12333;-72
2020/12/13 03:48:33;;;;;;;;;15.75;15.75;;;;;4.84;73.72;101404.47;4449357;32;12259;-72
2020/12/13 03:51:28;;;;;;;;;6.50;6.50;;;;;4.97;73.75;101412.09;4447857;32;12287;-72
2020/12/13 03:54:24;;;;;;;;;15.00;15.00;;;;;4.69;74.63;101411.59;4448250;32;12315;-72
2020/12/13 03:57:19;;;;;;;;;15.75;15.75;;;;;4.95;73.88;101419.78;4416767;32;12347;-72
2020/12/13 04:00:15;;;;;;;;;16.00;16.00;;;;;4.91;73.98;101421.47;4430181;32;12382;-72
2020/12/13 04:03:12;;;;;;;;;18.75;17.75;;;;;5.03;73.42;101421.97;4432395;32;12367;-72
2020/12/13 04:05:39;;;;;;;;;16.25;16.25;;;;;5.02;73.53;101420.34;4432660;32;12325;-72
2020/12/13 04:08:06;;;;;;;;;16.25;16.25;;;;;4.96;73.89;101422.25;4433350;32;12291;-71
2020/12/13 04:11:01;;;;;;;;;14.00;14.00;;;;;4.91;73.59;101418.72;4428571;32;12325;-72
2020/12/13 04:13:57;;;;;;;;;19.50;18.00;;;;;4.70;74.20;101413.22;4427685;32;12391;-71
2020/12/13 04:16:53;;;;;;;;;13.25;13.25;;;;;5.03;73.15;101422.78;4430397;32;12936;-73
2020/12/13 04:19:48;;;;;;;;;14.75;14.50;;;;;4.59;74.62;101419.78;4429062;32;12310;-73
2020/12/13 04:22:44;;;;;;;;;13.00;13.00;;;;;4.80;74.34;101415.12;4434494;32;12417;-72
2020/12/13 04:25:25;;;;;;;;;21.25;21.25;;;;;4.78;73.90;101428.31;4436241;32;12394;-72
2020/12/13 04:27:53;;;;;;;;;27.75;27.75;;;;;4.90;73.56;101425.28;4430525;32;12282;-72
2020/12/13 04:30:24;;;;;;;;;23.00;23.00;;;;;4.98;73.52;101425.56;4428691;32;13042;-72
2020/12/13 04:33:19;;;;;;;;;21.50;20.75;;;;;4.41;75.05;101417.59;4431717;32;12368;-71
2020/12/13 04:35:48;;;;;;;;;23.00;23.00;;;;;4.76;73.99;101411.31;4434522;32;12476;-70
2020/12/13 04:38:29;;;;;;;;;20.00;19.00;;;;;4.79;73.71;101407.19;4435711;32;12291;-72
2020/12/13 04:41:25;;;;;;;;;17.00;17.00;;;;;4.52;75.02;101407.44;4434074;32;13176;-72
2020/12/13 04:44:22;;;;;;;;;30.25;29.25;;;;;4.63;74.21;101407.19;4434668;32;12376;-72
2020/12/13 04:47:19;;;;;;;;;19.25;18.50;;;;;4.46;74.91;101403.91;4434387;32;12356;-72
2020/12/13 04:49:50;;;;;;;;;17.00;17.00;;;;;4.44;74.72;101406.91;4436334;32;12364;-72
2020/12/13 04:52:34;;;;;;;;;19.50;19.50;;;;;4.49;74.74;101402.53;4434609;32;12401;-72
2020/12/13 04:55:29;;;;;;;;;23.50;19.00;;;;;4.77;73.74;101418.44;4434087;32;12987;-72
2020/12/13 04:58:27;;;;;;;;;20.00;19.75;;;;;4.76;73.72;101425.03;4434113;32;13040;-72
2020/12/13 05:01:23;;;;;;;;;20.00;20.00;;;;;4.65;74.39;101413.22;4435376;32;12314;-72
2020/12/13 05:04:10;;;;;;;;;18.75;18.75;;;;;4.60;74.55;101415.12;4430800;32;13025;-72
2020/12/13 05:07:06;;;;;;;;;17.00;17.00;;;;;4.77;73.97;101421.19;4431516;32;12393;-71
2020/12/13 05:10:02;;;;;;;;;20.75;20.75;;;;;4.72;73.61;101423.91;4432958;32;12373;-71
2020/12/13 05:12:48;;;;;;;;;18.25;17.25;;;;;4.71;73.92;101425.00;4428845;32;12362;-71
2020/12/13 05:15:30;;;;;;;;;19.25;19.25;;;;;4.70;74.03;101423.37;4434688;32;12314;-71
2020/12/13 05:18:00;;;;;;;;;17.75;16.75;;;;;4.37;75.32;101421.94;4435006;32;12293;-72
2020/12/13 05:20:56;;;;;;;;;17.50;17.50;;;;;4.58;74.74;101426.34;4428909;32;12306;-72
2020/12/13 05:23:24;;;;;;;;;21.75;21.75;;;;;4.69;74.77;101433.50;4427302;32;12303;-71
2020/12/13 05:25:53;;;;;;;;;19.50;19.50;;;;;4.86;74.32;101426.94;4434111;32;13025;-71
2020/12/13 05:28:29;;;;;;;;;21.25;21.25;;;;;4.59;75.26;101422.53;4434655;32;12329;-69
2020/12/13 05:30:57;;;;;;;;;23.00;22.25;;;;;4.39;75.74;101419.78;4435304;32;12323;-72
2020/12/13 05:33:31;;;;;;;;;23.75;23.75;;;;;4.74;74.79;101417.03;4435071;32;12316;-70
2020/12/13 05:36:28;;;;;;;;;19.75;19.00;;;;;4.74;74.54;101421.72;4433330;32;12315;-70
2020/12/13 05:39:24;;;;;;;;;21.25;21.25;;;;;4.91;73.48;101421.47;4434546;32;12331;-70
2020/12/13 05:41:52;;;;;;;;;21.75;19.75;;;;;4.42;75.12;101430.19;4434899;32;12337;-71
2020/12/13 05:53:47;;;;;;;;;17.25;17.25;;;;;4.51;75.13;101453.19;4424575;32;12391;-71
2020/12/13 05:56:33;;;;;;;;;15.50;15.50;;;;;4.60;75.07;101465.28;4428976;32;12375;-71
2020/12/13 05:59:30;;;;;;;;;21.50;19.25;;;;;4.63;74.49;101470.22;4427460;32;12962;-71
2020/12/13 06:02:02;;;;;;;;;20.00;18.75;;;;;4.68;74.27;101470.22;4421861;32;12297;-70
2020/12/13 06:05:02;;;;;;;;;24.50;21.75;;;;;4.83;73.83;101482.28;4434123;32;13018;-71
2020/12/13 06:07:59;;;;;;;;;18.25;16.00;;;;;4.87;73.19;101480.66;4418821;32;12386;-71
2020/12/13 06:10:55;;;;;;;;;25.75;22.50;;;;;4.88;73.15;101487.78;4418669;32;12347;-71
2020/12/13 06:13:36;;;;;;;;;19.25;19.25;;;;;4.86;73.76;101479.81;4419402;32;12338;-71
2020/12/13 06:16:33;;;;;;;;;22.50;22.50;;;;;4.94;73.15;101481.19;4418598;32;12330;-72
2020/12/13 06:19:33;;;;;;;;;26.00;21.50;;;;;4.89;73.48;101468.31;4430578;32;12392;-71
2020/12/13 06:22:28;;;;;;;;;20.25;20.25;;;;;4.81;73.58;101457.06;4432926;32;12983;-71
2020/12/13 06:25:04;;;;;;;;;29.25;23.00;;;;;4.72;74.24;101460.34;4434318;32;12365;-73
2020/12/13 06:28:00;;;;;;;;;18.00;18.00;;;;;4.45;74.82;101449.66;4433598;32;12353;-72
2020/12/13 06:30:55;;;;;;;;;24.25;23.25;;;;;4.57;74.38;101451.28;4432402;32;12527;-72
2020/12/13 06:33:22;;;;;;;;;26.25;26.25;;;;;4.41;75.11;101448.53;4435430;32;12316;-71
2020/12/13 06:35:50;;;;;;;;;26.50;22.00;;;;;4.73;73.95;101456.50;4428519;32;12310;-72
2020/12/13 06:38:20;;;;;;;;;26.25;25.50;;;;;4.63;73.75;101453.78;4427877;32;12346;-71
2020/12/13 06:40:50;;;;;;;;;29.50;27.50;;;;;4.59;74.40;101449.91;4433878;32;12394;-72
2020/12/13 06:43:18;;;;;;;;;25.75;25.75;;;;;4.67;73.89;101457.59;4432785;32;12425;-71
2020/12/13 06:45:45;;;;;;;;;26.50;26.50;;;;;4.69;73.54;101455.44;4433314;32;12435;-72
2020/12/13 06:48:14;;;;;;;;;21.25;19.50;;;;;4.55;73.97;101453.50;4429209;32;12353;-72
2020/12/13 06:51:15;;;;;;;;;23.25;23.25;;;;;4.22;74.76;101463.84;4417597;32;12436;-71
2020/12/13 06:54:13;;;;;;;;;24.50;22.25;;;;;4.16;74.95;101459.44;4422715;32;12346;-71
2020/12/13 06:57:08;;;;;;;;;23.50;23.50;;;;;4.17;75.41;101445.47;1578926;32;93141630;-71
2020/12/13 07:00:03;;;;;;;;;22.25;19.75;;;;;4.35;75.15;101446.87;4417454;32;8926;-72
2020/12/13 07:03:06;;;;;;;;;24.50;24.00;;;;;4.23;75.25;101450.97;4423607;32;12285;-71
2020/12/13 07:06:05;;;;;;;;;21.25;21.25;;;;;4.45;74.41;101448.84;4377141;32;12447;-73
2020/12/13 07:08:54;;;;;;;;;23.25;23.25;;;;;4.42;74.29;101463.87;4418035;32;12994;-70
2020/12/13 07:11:52;;;;;;;;;21.75;21.75;;;;;4.62;73.72;101474.06;4418328;32;12485;-71
2020/12/13 07:14:24;;;;;;;;;20.50;19.75;;;;;4.59;73.52;101474.56;4422414;32;12401;-71
2020/12/13 07:17:22;;;;;;;;;27.25;26.25;;;;;4.67;73.07;101467.75;4425108;32;12233;-72
2020/12/13 07:20:19;;;;;;;;;25.00;24.00;;;;;4.66;73.29;101469.66;4421682;32;12525;-71
2020/12/13 07:22:47;;;;;;;;;33.25;25.75;;;;;4.84;72.76;101467.50;4417471;32;12537;-72
2020/12/13 07:25:42;;;;;;;;;16.25;16.25;;;;;4.67;73.27;101459.53;4414904;32;12405;-72
2020/12/13 07:28:10;;;;;;;;;47.75;42.50;;;;;4.50;73.72;101462.50;4416929;32;12273;-72
2020/12/13 07:31:07;;;;;;;;;30.50;30.00;;;;;4.53;73.45;101467.47;4414577;32;12545;-71
2020/12/13 07:34:06;;;;;;;;;25.50;23.00;;;;;4.62;73.60;101471.31;4429992;32;12339;-71
2020/12/13 07:37:02;;;;;;;;;63.67;53.33;;;;;4.73;73.37;101472.97;4430244;32;12418;-71
2020/12/13 07:40:13;;;;;;;;;20.00;19.00;;;;;4.41;74.52;101459.50;4429542;32;8923;-71
2020/12/13 07:43:09;;;;;;;;;19.75;16.00;;;;;4.62;73.89;101463.09;4431294;32;12227;-71
2020/12/13 07:45:59;;;;;;;;;29.50;29.00;;;;;4.45;74.35;101465.25;4430614;32;12322;-72
2020/12/13 07:49:06;;;;;;;;;29.00;28.00;;;;;4.58;74.24;101459.25;4423333;32;12294;-70
2020/12/13 07:52:02;;;;;;;;;20.25;19.00;;;;;4.49;74.46;101454.56;4416669;32;12494;-71
2020/12/13 07:54:39;;;;;;;;;17.75;17.75;;;;;4.58;73.97;101450.19;4419864;32;13178;-70
2020/12/13 07:57:35;;;;;;;;;25.75;24.50;;;;;4.64;73.97;101449.94;4430297;32;12364;-72
2020/12/13 08:00:31;;;;;;;;;21.00;21.00;;;;;4.58;74.46;101441.97;4419742;32;12350;-71
2020/12/13 08:03:27;;;;;;;;;19.50;19.00;;;;;4.71;74.21;101452.41;4418831;32;12379;-71
2020/12/13 08:06:22;;;;;;;;;22.50;22.50;;;;;4.64;74.05;101449.94;4420246;32;13081;-71
2020/12/13 08:09:18;;;;;;;;;24.00;23.25;;;;;4.65;73.92;101445.28;4423876;32;12969;-71
2020/12/13 08:12:09;;;;;;;;;20.00;20.00;;;;;4.66;73.86;101433.22;4421567;32;12438;-71
2020/12/13 08:14:51;;;;;;;;;22.75;22.75;;;;;4.60;74.31;101431.56;4424536;32;12388;-71
2020/12/13 08:17:35;;;;;;;;;20.00;20.00;;;;;4.81;74.12;101437.88;4419589;32;12372;-71
2020/12/13 08:20:35;;;;;;;;;19.50;19.50;;;;;4.86;73.64;101433.22;4417092;32;12440;-72
2020/12/13 08:23:06;;;;;;;;;20.25;18.00;;;;;4.84;73.45;101434.63;4425605;32;12290;-70
2020/12/13 08:25:50;;;;;;;;;21.00;19.50;;;;;4.60;74.18;101440.63;4423167;32;12301;-71
2020/12/13 08:28:47;;;;;;;;;23.50;23.50;;;;;4.62;74.42;101441.19;4418753;32;12376;-71
2020/12/13 08:31:19;;;;;;;;;21.50;21.00;;;;;5.02;73.23;101439.53;4428938;32;12402;-71
2020/12/13 08:33:58;;;;;;;;;26.00;25.00;;;;;5.07;73.24;101441.44;4428807;32;12340;-71
2020/12/13 08:36:26;;;;;;;;;26.25;26.00;;;;;5.06;73.52;101432.41;4420754;32;12445;-71
2020/12/13 08:39:06;;;;;;;;;23.75;22.25;;;;;5.20;73.33;101427.16;4423231;32;12368;-71
2020/12/13 08:41:55;;;;;;;;;21.50;21.50;;;;;5.10;73.00;101424.44;4428044;32;12301;-72
2020/12/13 08:44:26;;;;;;;;;18.00;16.75;;;;;4.91;73.79;101414.06;4424396;32;12391;-72
2020/12/13 08:47:30;;;;;;;;;25.25;24.75;;;;;4.87;73.62;101421.16;4424567;32;12350;-72
2020/12/13 08:50:19;;;;;;;;;20.25;20.25;;;;;4.83;73.49;101421.97;4418588;32;12506;-72
2020/12/13 08:53:22;;;;;;;;;17.50;16.00;;;;;5.34;72.16;101430.16;4417461;32;13060;-72
2020/12/13 08:56:14;;;;;;;;;19.75;18.50;;;;;5.06;72.91;101442.53;4418470;32;12276;-71
2020/12/13 08:58:59;;;;;;;;;9.50;1.00;;;;;5.13;72.89;101426.63;4427110;32;12365;-72
2020/12/13 09:02:02;;;;;;;;;30.00;27.25;;;;;5.11;73.10;101421.41;4424331;32;12329;-72
2020/12/13 09:04:35;;;;;;;;;26.25;25.25;;;;;5.22;73.08;101411.28;4420891;32;12326;-71
2020/12/13 09:07:31;;;;;;;;;26.25;22.25;;;;;5.31;73.39;101415.09;4417704;32;12379;-70
2020/12/13 09:10:36;;;;;;;;;22.75;21.25;;;;;5.02;74.05;101403.88;4418027;32;12451;-70
2020/12/13 09:13:06;;;;;;;;;22.75;20.75;;;;;5.17;73.33;101406.59;4423656;32;12373;-72
2020/12/13 09:15:34;;;;;;;;;23.00;23.00;;;;;5.11;73.81;101399.47;4426280;32;12294;-71
2020/12/13 09:18:04;;;;;;;;;26.00;24.25;;;;;4.99;74.21;101390.75;4431957;32;12377;-71
2020/12/13 09:20:38;;;;;;;;;24.00;24.00;;;;;5.35;73.63;101396.94;4431884;32;12344;-71
2020/12/13 09:23:13;;;;;;;;;24.25;24.25;;;;;5.42;72.86;101394.75;4419870;32;12294;-71
2020/12/13 09:25:54;;;;;;;;;19.50;18.75;;;;;5.28;73.38;101388.19;4430623;32;12317;-72
2020/12/13 09:28:35;;;;;;;;;21.25;20.75;;;;;5.10;74.42;101377.81;4431895;32;12457;-72
2020/12/13 09:31:31;;;;;;;;;24.50;24.50;;;;;5.46;72.82;101368.41;4417584;32;12308;-71
2020/12/13 09:33:59;;;;;;;;;19.25;19.25;;;;;5.50;72.45;101368.66;4414673;32;12315;-71
2020/12/13 09:36:27;;;;;;;;;20.00;20.00;;;;;5.38;73.16;101379.13;4427083;32;12308;-71
2020/12/13 09:38:55;;;;;;;;;20.50;20.50;;;;;5.38;73.35;101376.37;4419657;32;12388;-71
2020/12/13 09:41:38;;;;;;;;;22.50;20.75;;;;;5.38;73.02;101359.94;4417433;32;12393;-72
2020/12/13 09:44:34;;;;;;;;;20.75;20.75;;;;;5.02;73.52;101369.06;4425741;32;13095;-71
2020/12/13 09:47:29;;;;;;;;;17.75;17.75;;;;;5.34;73.00;101356.91;4420308;32;12323;-71
2020/12/13 09:50:27;;;;;;;;;24.00;23.25;;;;;5.21;73.32;101358.34;4429582;32;13072;-71
2020/12/13 09:53:22;;;;;;;;;26.25;25.00;;;;;5.58;72.74;101354.34;4420886;32;12302;-70
2020/12/13 09:55:53;;;;;;;;;20.75;20.75;;;;;5.28;73.43;101358.84;4417781;32;12322;-70
2020/12/13 09:58:49;;;;;;;;;24.50;24.50;;;;;5.37;72.54;101355.53;4425326;32;12307;-71
2020/12/13 10:01:30;;;;;;;;;16.50;15.25;;;;;5.56;72.06;101351.06;4431981;32;12365;-71
2020/12/13 10:04:27;;;;;;;;;21.75;21.50;;;;;5.35;72.57;101341.28;4432093;32;12409;-71
2020/12/13 10:09:56;;;;;;;;;20.00;19.50;;;;;5.31;72.84;101343.78;4420119;32;12331;-73
2020/12/13 10:12:26;;;;;;;;;23.75;22.00;;;;;5.27;72.48;101331.69;4422432;32;12484;-72
2020/12/13 10:15:22;;;;;;;;;23.00;20.25;;;;;5.39;72.86;101340.44;4424952;32;12419;-72
2020/12/13 10:18:17;;;;;;;;;23.00;23.00;;;;;5.69;71.61;101341.41;4416837;32;12422;-70
2020/12/13 10:21:19;;;;;;;;;23.50;22.00;;;;;5.14;72.78;101332.31;4423097;32;12326;-72
2020/12/13 10:24:15;;;;;;;;;12.25;12.25;;;;;5.27;72.69;101329.78;4421155;32;13028;-71
2020/12/13 10:26:56;;;;;;;;;20.50;19.25;;;;;5.73;71.70;101329.56;4416963;32;12357;-71
2020/12/13 10:29:52;;;;;;;;;20.00;20.00;;;;;5.43;72.16;101335.22;4430612;32;12301;-71
2020/12/13 10:32:48;;;;;;;;;20.75;20.25;;;;;5.43;71.98;101333.28;4419540;32;12418;-71
2020/12/13 10:35:44;;;;;;;;;25.75;25.00;;;;;5.61;71.41;101336.50;4417381;32;12359;-71
2020/12/13 10:38:25;;;;;;;;;22.50;22.50;;;;;5.75;71.31;101334.78;4415335;32;13054;-71
2020/12/13 10:41:21;;;;;;;;;23.75;23.75;;;;;5.61;71.35;101342.81;4422297;32;12418;-71
2020/12/13 10:44:05;;;;;;;;;20.25;20.25;;;;;5.72;71.37;101333.44;4416193;32;12418;-71
2020/12/13 10:46:33;;;;;;;;;19.75;19.75;;;;;5.45;72.20;101341.25;4415980;32;12358;-71
2020/12/13 10:49:28;;;;;;;;;32.75;32.50;;;;;5.70;71.76;101335.63;4424349;32;12374;-71
2020/12/13 10:51:56;;;;;;;;;29.00;29.00;;;;;5.66;71.81;101333.72;4431262;32;12328;-71
2020/12/13 10:54:25;;;;;;;;;19.25;19.25;;;;;5.77;71.37;101327.91;4426961;32;12462;-72
2020/12/13 10:57:25;;;;;;;;;20.00;20.00;;;;;6.07;70.81;101326.13;4410622;32;12544;-71
2020/12/13 11:00:23;;;;;;;;;27.50;24.75;;;;;5.97;70.48;101328.91;4414541;32;12398;-72
2020/12/13 11:02:59;;;;;;;;;33.00;29.25;;;;;5.98;70.85;101325.91;4416273;32;12375;-72
2020/12/13 11:05:26;;;;;;;;;45.75;40.75;;;;;5.98;70.42;101320.41;4417096;32;12430;-72
2020/12/13 11:08:22;;;;;;;;;21.75;21.75;;;;;5.99;70.58;101337.72;4419926;32;12361;-72
2020/12/13 11:11:22;;;;;;;;;28.25;28.25;;;;;6.22;69.70;101353.47;4425462;32;12508;-71
2020/12/13 11:14:18;;;;;;;;;19.25;19.25;;;;;6.29;69.86;101373.22;4422540;32;12396;-71
2020/12/13 11:16:50;;;;;;;;;26.00;26.00;;;;;6.18;68.91;101374.38;4430259;32;13015;-72
2020/12/13 11:19:47;;;;;;;;;24.25;24.00;;;;;6.32;69.45;101396.53;4427164;32;12398;-73
2020/12/13 11:22:14;;;;;;;;;25.75;25.75;;;;;6.36;68.92;101392.09;4418493;32;13059;-73
2020/12/13 11:24:41;;;;;;;;;26.00;25.75;;;;;6.04;69.64;101406.31;4423719;32;12317;-73
2020/12/13 11:27:37;;;;;;;;;28.25;25.75;;;;;5.74;70.04;101404.50;4423892;32;12399;-71
2020/12/13 11:30:34;;;;;;;;;30.25;29.25;;;;;6.09;69.14;101412.59;4420637;32;12568;-72
2020/12/13 11:33:30;;;;;;;;;25.75;24.00;;;;;6.26;68.95;101405.91;4418768;32;12365;-72
2020/12/13 11:36:27;;;;;;;;;20.75;20.75;;;;;6.16;69.32;101422.47;4431992;32;12411;-69
2020/12/13 11:39:22;;;;;;;;;22.50;22.50;;;;;6.15;68.99;101416.16;4424411;32;12399;-71
2020/12/13 11:42:19;;;;;;;;;24.25;24.25;;;;;6.35;68.58;101402.25;4417638;32;12357;-73
2020/12/13 11:45:14;;;;;;;;;47.00;40.00;;;;;6.24;68.95;101411.69;4430285;32;12437;-72
2020/12/13 11:48:10;;;;;;;;;51.50;45.00;;;;;5.99;69.42;101401.69;4417680;32;12333;-72
2020/12/13 11:50:40;;;;;;;;;30.75;29.00;;;;;6.12;69.08;101390.06;4418520;32;12412;-71
2020/12/13 11:53:08;;;;;;;;;24.25;24.00;;;;;5.58;71.13;101390.00;4426260;32;12411;-75
2020/12/13 11:55:37;;;;;;;;;27.75;27.75;;;;;5.75;70.61;101385.03;4419730;32;12398;-75
2020/12/13 11:58:06;;;;;;;;;51.50;43.50;;;;;5.89;70.07;101387.13;4417681;32;13097;-76
2020/12/13 12:01:06;;;;;;;;;35.25;34.25;;;;;5.66;70.97;101389.44;4417035;32;12392;-72
2020/12/13 12:04:02;;;;;;;;;34.50;31.25;;;;;5.88;70.14;101372.59;4432380;32;12405;-74
2020/12/13 12:06:57;;;;;;;;;57.00;47.25;;;;;5.82;70.58;101360.00;4432065;32;12378;-74
2020/12/13 12:09:25;;;;;;;;;35.00;35.00;;;;;5.75;70.54;101357.59;4433104;32;12470;-74
2020/12/13 12:12:20;;;;;;;;;27.75;27.75;;;;;5.44;71.50;101354.12;4419312;32;12329;-74
2020/12/13 12:14:47;;;;;;;;;32.75;31.25;;;;;5.79;70.62;101352.34;4432657;32;12402;-74
2020/12/13 12:17:43;;;;;;;;;31.50;30.50;;;;;5.83;70.39;101359.72;4423448;32;12365;-74
2020/12/13 12:20:40;;;;;;;;;22.50;22.50;;;;;5.61;71.26;101373.00;4428850;32;12358;-74
2020/12/13 12:23:36;;;;;;;;;28.00;28.00;;;;;5.59;70.77;101370.53;4431392;32;12355;-74
2020/12/13 12:26:27;;;;;;;;;29.25;27.50;;;;;5.87;70.12;101384.69;4433795;32;12434;-74
2020/12/13 12:29:23;;;;;;;;;26.75;25.50;;;;;5.80;70.19;101379.50;4422747;32;12453;-73
2020/12/13 12:32:18;;;;;;;;;29.00;26.50;;;;;5.65;70.43;101370.50;4428186;32;12325;-75
2020/12/13 12:34:47;;;;;;;;;30.50;30.50;;;;;5.53;70.57;101373.59;4429270;32;12386;-75
2020/12/13 12:37:28;;;;;;;;;28.00;27.50;;;;;5.84;70.06;101379.75;4418380;32;12348;-75
2020/12/13 12:40:23;;;;;;;;;28.50;28.25;;;;;5.85;70.08;101395.12;4422600;32;12303;-74
2020/12/13 12:42:52;;;;;;;;;32.75;29.75;;;;;5.63;70.11;101392.75;4433189;32;12971;-74
2020/12/13 12:45:19;;;;;;;;;26.50;25.75;;;;;5.79;69.83;101394.31;4419824;32;12336;-73
2020/12/13 12:47:47;;;;;;;;;32.25;29.50;;;;;6.07;68.65;101390.09;4431417;32;12358;-74
2020/12/13 12:50:15;;;;;;;;;22.50;22.00;;;;;5.63;70.48;101395.50;4422084;32;13030;-74
2020/12/13 12:52:43;;;;;;;;;25.00;24.25;;;;;5.72;70.19;101401.22;4418990;32;12388;-74
2020/12/13 12:55:39;;;;;;;;;30.75;30.00;;;;;5.86;69.45;101411.31;4417107;32;12377;-75
2020/12/13 12:58:09;;;;;;;;;38.50;33.25;;;;;6.00;69.07;101413.47;4416491;32;12333;-74